Observation data for Morton on 05/25/2019      Previous  Date  Next       Current Mesonet Observations  Soil Data  Daily Summary Page  Observations in Plain Language
KMNS 250500Z 12013KT 19/17 A2998 RMK A01 T01900169  RH  092%=      5-min Rain = 0
KMNS 250505Z 12013KT 19/17 A2998 RMK A01 T01890169  RH  093%=      5-min Rain = 0
KMNS 250510Z 12012KT 19/17 A2998 RMK A01 T01900170  RH  093%=      5-min Rain = 0
KMNS 250515Z 13012KT 19/17 A2998 RMK A01 T01900170  RH  093%=      5-min Rain = 0
KMNS 250520Z 13011KT 19/17 A2998 RMK A01 T01900170  RH  093%=      5-min Rain = 0
KMNS 250525Z 13010KT 19/17 A2998 RMK A01 T01900170  RH  093%=      5-min Rain = 0
KMNS 250530Z 13010KT 19/17 A2998 RMK A01 T01900170  RH  092%=      5-min Rain = 0
KMNS 250535Z 13010KT 19/17 A2998 RMK A01 T01900170  RH  092%=      5-min Rain = 0
KMNS 250540Z 13010KT 19/17 A2998 RMK A01 T01900169  RH  092%=      5-min Rain = 0
KMNS 250545Z 13009KT 19/17 A2998 RMK A01 T01900169  RH  092%=      5-min Rain = 0
KMNS 250550Z 14009KT 19/17 A2998 RMK A01 T01890169  RH  093%=      5-min Rain = 0
KMNS 250555Z 13009KT 19/17 A2998 RMK A01 T01890169  RH  093%=      5-min Rain = 0
KMNS 250600Z 13009KT 19/17 A2998 RMK A01 T01890169  RH  093%=      5-min Rain = 0
KMNS 250605Z 13008KT 19/17 A2998 RMK A01 T01880169  RH  093%=      5-min Rain = 0
KMNS 250610Z 12008KT 19/17 A2998 RMK A01 T01870169  RH  093%=      5-min Rain = 0
KMNS 250615Z 12009KT 19/17 A2998 RMK A01 T01860168  RH  094%=      5-min Rain = 0
KMNS 250620Z 12008KT 19/17 A2998 RMK A01 T01850168  RH  094%=      5-min Rain = 0
KMNS 250625Z 13007KT 19/17 A2998 RMK A01 T01850168  RH  094%=      5-min Rain = 0
KMNS 250630Z 13006KT 19/17 A2998 RMK A01 T01850168  RH  095%=      5-min Rain = 0
KMNS 250635Z 13005KT 19/17 A2999 RMK A01 T01850169  RH  094%=      5-min Rain = 0
KMNS 250640Z 12005KT 19/17 A2999 RMK A01 T01860169  RH  094%=      5-min Rain = 0
KMNS 250645Z 11004KT 19/17 A2999 RMK A01 T01870170  RH  095%=      5-min Rain = 0
KMNS 250650Z 11005KT 19/17 A2999 RMK A01 T01870170  RH  095%=      5-min Rain = 0
KMNS 250655Z 11005KT 19/17 A2999 RMK A01 T01870171  RH  095%=      5-min Rain = 0
KMNS 250700Z 11005KT 19/17 A2998 RMK A01 T01870170  RH  095%=      5-min Rain = 0
KMNS 250705Z 12005KT 19/17 A2998 RMK A01 T01860170  RH  095%=      5-min Rain = 0
KMNS 250710Z 13005KT 19/17 A2998 RMK A01 T01860170  RH  095%=      5-min Rain = 0
KMNS 250715Z 13005KT 19/17 A2997 RMK A01 T01850169  RH  095%=      5-min Rain = 0
KMNS 250720Z 13005KT 19/17 A2997 RMK A01 T01850169  RH  095%=      5-min Rain = 0
KMNS 250725Z 14005KT 19/17 A2997 RMK A01 T01850169  RH  095%=      5-min Rain = 0
KMNS 250730Z 13004KT 18/17 A2997 RMK A01 T01840169  RH  095%=      5-min Rain = 0
KMNS 250735Z 13004KT 18/17 A2997 RMK A01 T01840168  RH  095%=      5-min Rain = 0
KMNS 250740Z 12004KT 18/17 A2997 RMK A01 T01830168  RH  095%=      5-min Rain = 0
KMNS 250745Z 12004KT 18/17 A2997 RMK A01 T01830168  RH  096%=      5-min Rain = 0
KMNS 250750Z 12005KT 18/17 A2997 RMK A01 T01830168  RH  096%=      5-min Rain = 0
KMNS 250755Z 12005KT 18/17 A2997 RMK A01 T01830169  RH  096%=      5-min Rain = 0
KMNS 250800Z 12005KT 18/17 A2997 RMK A01 T01840170  RH  097%=      5-min Rain = 0
KMNS 250805Z 12005KT 18/17 A2997 RMK A01 T01840171  RH  097%=      5-min Rain = 0
KMNS 250810Z 12005KT 19/17 A2996 RMK A01 T01850172  RH  097%=      5-min Rain = 0
KMNS 250815Z 12006KT 19/17 A2996 RMK A01 T01850172  RH  097%=      5-min Rain = 0
KMNS 250820Z 12007KT 19/17 A2996 RMK A01 T01850173  RH  097%=      5-min Rain = 0
KMNS 250825Z 11007KT 19/17 A2996 RMK A01 T01860173  RH  097%=      5-min Rain = 0
KMNS 250830Z 11008KT 19/17 A2996 RMK A01 T01860174  RH  097%=      5-min Rain = 0
KMNS 250835Z 11008KT 19/17 A2996 RMK A01 T01850173  RH  097%=      5-min Rain = 0
KMNS 250840Z 11008KT 18/17 A2996 RMK A01 T01840172  RH  097%=      5-min Rain = 0
KMNS 250845Z 11008KT 18/17 A2996 RMK A01 T01840172  RH  098%=      5-min Rain = 0
KMNS 250850Z 12008KT 18/17 A2996 RMK A01 T01830172  RH  098%=      5-min Rain = 0
KMNS 250855Z 11008KT 18/17 A2996 RMK A01 T01830172  RH  098%=      5-min Rain = 0
KMNS 250900Z 11008KT 18/17 A2996 RMK A01 T01830172  RH  098%=      5-min Rain = 0
KMNS 250905Z 12008KT 18/17 A2996 RMK A01 T01830172  RH  098%=      5-min Rain = 0
KMNS 250910Z 13007KT 18/17 A2996 RMK A01 T01830172  RH  098%=      5-min Rain = 0
KMNS 250915Z 12007KT 18/17 A2996 RMK A01 T01830172  RH  098%=      5-min Rain = 0
KMNS 250920Z 11008KT 18/17 A2996 RMK A01 T01830172  RH  098%=      5-min Rain = 0
KMNS 250925Z 12008KT 18/17 A2996 RMK A01 T01830172  RH  099%=      5-min Rain = 0
KMNS 250930Z 12008KT 18/17 A2996 RMK A01 T01830173  RH  099%=      5-min Rain = 0
KMNS 250935Z 12008KT 18/17 A2996 RMK A01 T01830173  RH  099%=      5-min Rain = 0
KMNS 250940Z 12008KT 18/17 A2996 RMK A01 T01830173  RH  099%=      5-min Rain = 0
KMNS 250945Z 12009KT 18/17 A2996 RMK A01 T01830173  RH  099%=      5-min Rain = 0
KMNS 250950Z 12009KT 18/17 A2996 RMK A01 T01830174  RH  099%=      5-min Rain = 0
KMNS 250955Z 12008KT 18/17 A2996 RMK A01 T01830174  RH  099%=      5-min Rain = 0
KMNS 251000Z 12008KT 18/17 A2996 RMK A01 T01830174  RH  099%=      5-min Rain = 0
KMNS 251005Z 12008KT 18/17 A2997 RMK A01 T01830174  RH  100%=      5-min Rain = 0
KMNS 251010Z 12008KT 18/17 A2997 RMK A01 T01830174  RH  100%=      5-min Rain = 0
KMNS 251015Z 12007KT 18/18 A2997 RMK A01 T01830175  RH  100%=      5-min Rain = 0
KMNS 251020Z 12008KT 18/18 A2997 RMK A01 T01830175  RH  100%=      5-min Rain = 0
KMNS 251025Z 12007KT 18/18 A2997 RMK A01 T01840175  RH  100%=      5-min Rain = 0
KMNS 251030Z 12008KT 18/18 A2997 RMK A01 T01840175  RH  100%=      5-min Rain = 0
KMNS 251035Z 12008KT 18/18 A2997 RMK A01 T01840175  RH  100%=      5-min Rain = 0
KMNS 251040Z 12008KT 18/18 A2998 RMK A01 T01840175  RH  100%=      5-min Rain = 0
KMNS 251045Z 12007KT 18/18 A2998 RMK A01 T01840176  RH  100%=      5-min Rain = 0
KMNS 251050Z 13008KT 18/18 A2998 RMK A01 T01840176  RH  100%=      5-min Rain = 0
KMNS 251055Z 13008KT 19/18 A2998 RMK A01 T01850176  RH  100%=      5-min Rain = 0
KMNS 251100Z 13008KT 18/18 A2998 RMK A01 T01840176  RH  100%=      5-min Rain = 0
KMNS 251105Z 13008KT 18/18 A2998 RMK A01 T01840176  RH  100%=      5-min Rain = 0
KMNS 251110Z 13009KT 19/18 A2998 RMK A01 T01850177  RH  100%=      5-min Rain = 0
KMNS 251115Z 13008KT 19/18 A2998 RMK A01 T01860177  RH  100%=      5-min Rain = 0
KMNS 251120Z 13010KT 19/18 A2998 RMK A01 T01860178  RH  100%=      5-min Rain = 0
KMNS 251125Z 13010KT 19/18 A2997 RMK A01 T01860177  RH  100%=      5-min Rain = 0
KMNS 251130Z 13009KT 19/18 A2997 RMK A01 T01860177  RH  100%=      5-min Rain = 0
KMNS 251135Z 14009KT 19/18 A2997 RMK A01 T01860177  RH  100%=      5-min Rain = 0
KMNS 251140Z 14009KT 19/18 A2998 RMK A01 T01860177  RH  100%=      5-min Rain = 0
KMNS 251145Z 14010KT 19/18 A2998 RMK A01 T01860178  RH  100%=      5-min Rain = 0
KMNS 251150Z 14009KT 19/18 A2998 RMK A01 T01870178  RH  100%=      5-min Rain = 0
KMNS 251155Z 14009KT 19/18 A2998 RMK A01 T01870179  RH  100%=      5-min Rain = 0
KMNS 251200Z 14009KT 19/18 A2999 RMK A01 T01870179  RH  100%=      5-min Rain = 0
KMNS 251205Z 15008KT 19/18 A2999 RMK A01 T01870179  RH  100%=      5-min Rain = 0
KMNS 251210Z 15008KT 19/18 A2999 RMK A01 T01880179  RH  100%=      5-min Rain = 0
KMNS 251215Z 15009KT 19/18 A2999 RMK A01 T01890180  RH  100%=      5-min Rain = 0
KMNS 251220Z 15009KT 19/18 A30 RMK A01 T01900181  RH  100%=      5-min Rain = 0
KMNS 251225Z 15009KT 19/18 A30 RMK A01 T01910182  RH  100%=      5-min Rain = 0
KMNS 251230Z 15008KT 19/18 A30 RMK A01 T01920183  RH  100%=      5-min Rain = 0
KMNS 251235Z 14007KT 19/18 A30 RMK A01 T01930184  RH  100%=      5-min Rain = 0
KMNS 251240Z 14007KT 19/19 A30 RMK A01 T01940185  RH  100%=      5-min Rain = 0
KMNS 251245Z 14007KT 20/19 A30 RMK A01 T01950186  RH  100%=      5-min Rain = 0
KMNS 251250Z 14008KT 20/19 A30 RMK A01 T01950186  RH  100%=      5-min Rain = 0
KMNS 251255Z 14008KT 20/19 A30 RMK A01 T01960188  RH  100%=      5-min Rain = 0
KMNS 251300Z 14008KT 20/19 A30 RMK A01 T01980189  RH  100%=      5-min Rain = 0
KMNS 251305Z 14008KT 20/19 A30 RMK A01 T01980189  RH  099%=      5-min Rain = 0
KMNS 251310Z 13008KT 20/19 A30 RMK A01 T01990189  RH  099%=      5-min Rain = 0
KMNS 251315Z 14009G14KT 20/19 A30 RMK A01 T02000190  RH  099%=      5-min Rain = 0
KMNS 251320Z 15011G16KT 20/19 A30 RMK A01 T02010190  RH  098%=      5-min Rain = 0
KMNS 251325Z 15011KT 20/19 A3001 RMK A01 T02030190  RH  098%=      5-min Rain = 0
KMNS 251330Z 15011KT 20/19 A3001 RMK A01 T02030190  RH  097%=      5-min Rain = 0
KMNS 251335Z 15010KT 20/19 A3001 RMK A01 T02040190  RH  097%=      5-min Rain = 0
KMNS 251340Z 15012G17KT 21/19 A3001 RMK A01 T02050190  RH  096%=      5-min Rain = 0
KMNS 251345Z 15012KT 21/19 A3001 RMK A01 T02060190  RH  096%=      5-min Rain = 0
KMNS 251350Z 15013G19KT 21/19 A3001 RMK A01 T02060189  RH  095%=      5-min Rain = 0
KMNS 251355Z 15013G18KT 21/19 A3001 RMK A01 T02060188  RH  095%=      5-min Rain = 0
KMNS 251400Z 15014KT 21/19 A3001 RMK A01 T02060188  RH  095%=      5-min Rain = 0
KMNS 251405Z 15014KT 21/19 A3001 RMK A01 T02060188  RH  095%=      5-min Rain = 0
KMNS 251410Z 14013KT 21/19 A3001 RMK A01 T02070189  RH  095%=      5-min Rain = 0
KMNS 251415Z 14012G18KT 21/19 A3001 RMK A01 T02070189  RH  094%=      5-min Rain = 0
KMNS 251420Z 14012KT 21/19 A3001 RMK A01 T02080189  RH  094%=      5-min Rain = 0
KMNS 251425Z 14012G17KT 21/19 A3001 RMK A01 T02080189  RH  094%=      5-min Rain = 0
KMNS 251430Z 15013KT 21/19 A3001 RMK A01 T02100190  RH  093%=      5-min Rain = 0
KMNS 251435Z 15014KT 21/19 A3001 RMK A01 T02110189  RH  092%=      5-min Rain = 0
KMNS 251440Z 14013KT 21/19 A3002 RMK A01 T02110189  RH  092%=      5-min Rain = 0
KMNS 251445Z 14012G17KT 21/19 A3002 RMK A01 T02120189  RH  092%=      5-min Rain = 0
KMNS 251450Z 14014KT 21/19 A3001 RMK A01 T02120188  RH  091%=      5-min Rain = 0
KMNS 251455Z 14011KT 21/19 A3001 RMK A01 T02130188  RH  091%=      5-min Rain = 0
KMNS 251500Z 14012G17KT 21/19 A3001 RMK A01 T02130188  RH  091%=      5-min Rain = 0
KMNS 251505Z 15011KT 21/19 A3001 RMK A01 T02130189  RH  091%=      5-min Rain = 0
KMNS 251510Z 15013G19KT 21/19 A3001 RMK A01 T02140189  RH  090%=      5-min Rain = 0
KMNS 251515Z 15014KT 22/19 A3001 RMK A01 T02170189  RH  089%=      5-min Rain = 0
KMNS 251520Z 15015KT 22/19 A3001 RMK A01 T02220190  RH  087%=      5-min Rain = 0
KMNS 251525Z 15014KT 22/19 A3001 RMK A01 T02230189  RH  086%=      5-min Rain = 0
KMNS 251530Z 15015G21KT 22/19 A3001 RMK A01 T02220187  RH  085%=      5-min Rain = 0
KMNS 251535Z 15016G21KT 22/19 A3001 RMK A01 T02220187  RH  085%=      5-min Rain = 0
KMNS 251540Z 15015G20KT 22/19 A3001 RMK A01 T02240188  RH  085%=      5-min Rain = 0
KMNS 251545Z 15015G21KT 23/19 A3001 RMK A01 T02260189  RH  084%=      5-min Rain = 0
KMNS 251550Z 15016G21KT 22/19 A3001 RMK A01 T02230187  RH  085%=      5-min Rain = 0
KMNS 251555Z 15016KT 22/19 A3001 RMK A01 T02230187  RH  085%=      5-min Rain = 0
KMNS 251600Z 15016KT 22/19 A3001 RMK A01 T02240188  RH  084%=      5-min Rain = 0
KMNS 251605Z 16015KT 23/19 A3001 RMK A01 T02260187  RH  083%=      5-min Rain = 0
KMNS 251610Z 15015G21KT 23/19 A3001 RMK A01 T02300187  RH  081%=      5-min Rain = 0
KMNS 251615Z 15015G20KT 24/19 A30 RMK A01 T02360189  RH  079%=      5-min Rain = 0
KMNS 251620Z 15017G23KT 24/19 A30 RMK A01 T02360187  RH  078%=      5-min Rain = 0
KMNS 251625Z 15016G22KT 24/19 A30 RMK A01 T02360186  RH  078%=      5-min Rain = 0
KMNS 251630Z 15016KT 24/18 A30 RMK A01 T02350184  RH  077%=      5-min Rain = 0
KMNS 251635Z 16014G21KT 24/18 A30 RMK A01 T02360184  RH  077%=      5-min Rain = 0
KMNS 251640Z 15014G19KT 24/19 A30 RMK A01 T02390185  RH  076%=      5-min Rain = 0
KMNS 251645Z 16014G21KT 24/18 A3001 RMK A01 T02370183  RH  076%=      5-min Rain = 0
KMNS 251650Z 15014G21KT 24/18 A30 RMK A01 T02390184  RH  075%=      5-min Rain = 0
KMNS 251655Z 16013G19KT 24/19 A30 RMK A01 T02440185  RH  074%=      5-min Rain = 0
KMNS 251700Z 16013G20KT 25/19 A3001 RMK A01 T02450186  RH  073%=      5-min Rain = 0
KMNS 251705Z 16014KT 24/18 A30 RMK A01 T02430183  RH  073%=      5-min Rain = 0
KMNS 251710Z 15015KT 24/18 A30 RMK A01 T02390183  RH  075%=      5-min Rain = 0
KMNS 251715Z 15014G19KT 24/18 A30 RMK A01 T02380182  RH  075%=      5-min Rain = 0
KMNS 251720Z 15014G19KT 24/18 A2999 RMK A01 T02360182  RH  076%=      5-min Rain = 0
KMNS 251725Z 15014G19KT 23/18 A2999 RMK A01 T02340181  RH  076%=      5-min Rain = 0
KMNS 251730Z 15013G18KT 23/18 A30 RMK A01 T02320180  RH  076%=      5-min Rain = 0
KMNS 251735Z 15013G18KT 23/18 A30 RMK A01 T02310180  RH  077%=      5-min Rain = 0
KMNS 251740Z 15013G19KT 23/18 A30 RMK A01 T02300182  RH  078%=      5-min Rain = 0
KMNS 251745Z 15013G19KT 23/18 A30 RMK A01 T02280181  RH  079%=      5-min Rain = 0
KMNS 251750Z 16010KT 23/18 A30 RMK A01 T02280181  RH  079%=      5-min Rain = 0
KMNS 251755Z 16009G14KT 23/18 A2999 RMK A01 T02270182  RH  080%=      5-min Rain = 0
KMNS 251800Z 14012KT 23/18 A2999 RMK A01 T02260184  RH  081%=      5-min Rain = 0
KMNS 251805Z 14012G17KT 22/18 A2999 RMK A01 T02230184  RH  083%=      5-min Rain = 0
KMNS 251810Z 14010KT 22/19 A2999 RMK A01 T02210185  RH  084%=      5-min Rain = 0
KMNS 251815Z 16009KT 22/19 A30 RMK A01 T02190186  RH  086%=      5-min Rain = 0.01
KMNS 251820Z 18012G18KT 22/19 A30 RMK A01 T02160188  RH  089%=      5-min Rain = 0.13
KMNS 251825Z 16016G24KT 20/18 A2999 RMK A01 T02030180  RH  091%=      5-min Rain = 0.15
KMNS 251830Z 15017G24KT 17/15 A30 RMK A01 T01690145  RH  089%=      5-min Rain = 0.06
KMNS 251835Z 20027G41KT 16/13 A3006 RMK A01 T01560134  RH  090%=      5-min Rain = 0.19
KMNS 251840Z 18018G27KT 15/13 A3002 RMK A01 T01450128  RH  093%=      5-min Rain = 0.11
KMNS 251845Z 14011G19KT 15/13 A30 RMK A01 T01510134  RH  093%=      5-min Rain = 0.04
KMNS 251850Z 12008KT 14/13 A2998 RMK A01 T01430129  RH  095%=      5-min Rain = 0.02
KMNS 251855Z 14007KT 15/13 A2998 RMK A01 T01450134  RH  097%=      5-min Rain = 0.01
KMNS 251900Z 14008KT 15/14 A2998 RMK A01 T01520141  RH  097%=      5-min Rain = 0.01
KMNS 251905Z 14003KT 16/15 A2997 RMK A01 T01580149  RH  098%=      5-min Rain = 0.01
KMNS 251910Z 15003KT 17/16 A2997 RMK A01 T01650156  RH  099%=      5-min Rain = 0
KMNS 251915Z 14005KT 17/16 A2998 RMK A01 T01680158  RH  098%=      5-min Rain = 0.01
KMNS 251920Z 11006KT 17/16 A2997 RMK A01 T01730163  RH  098%=      5-min Rain = 0
KMNS 251925Z 14006KT 18/17 A2997 RMK A01 T01780165  RH  097%=      5-min Rain = 0
KMNS 251930Z 17004KT 18/17 A2997 RMK A01 T01830169  RH  096%=      5-min Rain = 0
KMNS 251935Z 19004KT 19/17 A2996 RMK A01 T01900174  RH  095%=      5-min Rain = 0
KMNS 251940Z 19004KT 19/17 A2996 RMK A01 T01880166  RH  091%=      5-min Rain = 0
KMNS 251945Z 20005KT 19/17 A2995 RMK A01 T01900167  RH  091%=      5-min Rain = 0
KMNS 251950Z 21005KT 19/17 A2995 RMK A01 T01900165  RH  090%=      5-min Rain = 0.01
KMNS 251955Z 20005KT 19/16 A2994 RMK A01 T01890163  RH  089%=      5-min Rain = 0
KMNS 252000Z 22003KT 19/16 A2994 RMK A01 T01890164  RH  090%=      5-min Rain = 0
KMNS 252005Z 24002KT 19/17 A2995 RMK A01 T01910166  RH  090%=      5-min Rain = 0
KMNS 252010Z 21001KT 19/17 A2994 RMK A01 T01910165  RH  090%=      5-min Rain = 0.02
KMNS 252015Z 07001KT 19/17 A2993 RMK A01 T01910168  RH  090%=      5-min Rain = 0.08
KMNS 252020Z 35003KT 19/17 A2994 RMK A01 T01920170  RH  092%=      5-min Rain = 0.09
KMNS 252025Z 30007KT 19/17 A2994 RMK A01 T01920173  RH  094%=      5-min Rain = 0.03
KMNS 252030Z 28005KT 20/18 A2995 RMK A01 T01950179  RH  095%=      5-min Rain = 0.01
KMNS 252035Z 27006KT 20/18 A2995 RMK A01 T02000184  RH  096%=      5-min Rain = 0
KMNS 252040Z 30004KT 20/19 A2994 RMK A01 T02030186  RH  095%=      5-min Rain = 0
KMNS 252045Z 32002KT 21/19 A2994 RMK A01 T02110191  RH  093%=      5-min Rain = 0
KMNS 252050Z 04003KT 21/19 A2994 RMK A01 T02140189  RH  091%=      5-min Rain = 0
KMNS 252055Z 05006KT 22/19 A2993 RMK A01 T02180190  RH  089%=      5-min Rain = 0
KMNS 252100Z 06008KT 22/19 A2993 RMK A01 T02150185  RH  087%=      5-min Rain = 0
KMNS 252105Z 11005KT 21/18 A2994 RMK A01 T02110181  RH  088%=      5-min Rain = 0.02
KMNS 252110Z 09006KT 21/18 A2994 RMK A01 T02050183  RH  092%=      5-min Rain = 0.01
KMNS 252115Z 08009KT 21/19 A2993 RMK A01 T02050185  RH  093%=      5-min Rain = 0
KMNS 252120Z 07011KT 20/18 A2992 RMK A01 T02040184  RH  093%=      5-min Rain = 0
KMNS 252125Z 07011KT 20/19 A2991 RMK A01 T02040185  RH  094%=      5-min Rain = 0
KMNS 252130Z 07012KT 21/19 A2991 RMK A01 T02070189  RH  095%=      5-min Rain = 0
KMNS 252135Z 07013KT 21/19 A2991 RMK A01 T02070189  RH  095%=      5-min Rain = 0
KMNS 252140Z 06010KT 21/19 A299 RMK A01 T02070191  RH  096%=      5-min Rain = 0
KMNS 252145Z 06010KT 21/19 A299 RMK A01 T02060187  RH  094%=      5-min Rain = 0
KMNS 252150Z 06009KT 22/19 A299 RMK A01 T02160192  RH  091%=      5-min Rain = 0
KMNS 252155Z 06007KT 22/19 A299 RMK A01 T02190193  RH  090%=      5-min Rain = 0
KMNS 252200Z 06007KT 23/20 A299 RMK A01 T02270199  RH  089%=      5-min Rain = 0
KMNS 252205Z 06007KT 23/20 A2989 RMK A01 T02310198  RH  086%=      5-min Rain = 0
KMNS 252210Z 06007KT 24/20 A2988 RMK A01 T02390200  RH  083%=      5-min Rain = 0
KMNS 252215Z 07008KT 24/19 A2989 RMK A01 T02350194  RH  083%=      5-min Rain = 0
KMNS 252220Z 07009KT 23/19 A2989 RMK A01 T02340190  RH  081%=      5-min Rain = 0
KMNS 252225Z 08011KT 24/19 A2989 RMK A01 T02360193  RH  081%=      5-min Rain = 0
KMNS 252230Z 13016G30KT 23/19 A2992 RMK A01 T02320190  RH  082%=      5-min Rain = 0
KMNS 252235Z 16022G30KT 21/17 A2995 RMK A01 T02140165  RH  077%=      5-min Rain = 0.01
KMNS 252240Z 16018G24KT 21/15 A2994 RMK A01 T02100154  RH  074%=      5-min Rain = 0
KMNS 252245Z 16017G23KT 20/14 A2992 RMK A01 T02030143  RH  071%=      5-min Rain = 0.01
KMNS 252250Z 14014G19KT 21/14 A2991 RMK A01 T02080140  RH  068%=      5-min Rain = 0
KMNS 252255Z 16010KT 22/14 A299 RMK A01 T02160141  RH  065%=      5-min Rain = 0
KMNS 252300Z 16009KT 22/14 A299 RMK A01 T02210139  RH  062%=      5-min Rain = 0
KMNS 252305Z 16009G15KT 23/14 A299 RMK A01 T02270135  RH  059%=      5-min Rain = 0
KMNS 252310Z 16011KT 23/13 A299 RMK A01 T02340129  RH  054%=      5-min Rain = 0
KMNS 252315Z 17009KT 23/14 A2991 RMK A01 T02320135  RH  057%=      5-min Rain = 0
KMNS 252320Z 17010G17KT 24/15 A2991 RMK A01 T02360154  RH  063%=      5-min Rain = 0
KMNS 252325Z 17013G18KT 25/18 A299 RMK A01 T02460177  RH  069%=      5-min Rain = 0
KMNS 252330Z 16013G19KT 25/19 A2991 RMK A01 T02480185  RH  072%=      5-min Rain = 0
KMNS 252335Z 16013G18KT 25/19 A2991 RMK A01 T02510193  RH  074%=      5-min Rain = 0
KMNS 252340Z 16014G19KT 26/20 A2991 RMK A01 T02560198  RH  075%=      5-min Rain = 0
KMNS 252345Z 16019G26KT 26/19 A299 RMK A01 T02570191  RH  070%=      5-min Rain = 0
KMNS 252350Z 16016KT 26/19 A299 RMK A01 T02580191  RH  070%=      5-min Rain = 0
KMNS 252355Z 16018G24KT 26/19 A299 RMK A01 T02590188  RH  069%=      5-min Rain = 0
KMNS 260000Z 16019G30KT 26/19 A299 RMK A01 T02590186  RH  068%=      5-min Rain = 0
KMNS 260005Z 16017G23KT 26/19 A299 RMK A01 T02600185  RH  067%=      5-min Rain = 0
KMNS 260010Z 16017G27KT 26/18 A299 RMK A01 T02600184  RH  066%=      5-min Rain = 0
KMNS 260015Z 16017G24KT 26/18 A299 RMK A01 T02590183  RH  066%=      5-min Rain = 0
KMNS 260020Z 17019G26KT 26/18 A299 RMK A01 T02590182  RH  066%=      5-min Rain = 0
KMNS 260025Z 16017G23KT 26/18 A299 RMK A01 T02590183  RH  066%=      5-min Rain = 0
KMNS 260030Z 16017G24KT 26/18 A299 RMK A01 T02590182  RH  066%=      5-min Rain = 0
KMNS 260035Z 16015G20KT 26/18 A299 RMK A01 T02580182  RH  066%=      5-min Rain = 0
KMNS 260040Z 16015G21KT 26/18 A299 RMK A01 T02580183  RH  067%=      5-min Rain = 0
KMNS 260045Z 16015G21KT 26/18 A299 RMK A01 T02570183  RH  067%=      5-min Rain = 0
KMNS 260050Z 16016G23KT 26/18 A299 RMK A01 T02560181  RH  066%=      5-min Rain = 0
KMNS 260055Z 16016G21KT 26/18 A299 RMK A01 T02550182  RH  068%=      5-min Rain = 0
KMNS 260100Z 16016KT 25/18 A299 RMK A01 T02540182  RH  068%=      5-min Rain = 0
KMNS 260105Z 15016G22KT 25/18 A299 RMK A01 T02520180  RH  068%=      5-min Rain = 0
KMNS 260110Z 16015G22KT 25/18 A2991 RMK A01 T02500179  RH  068%=      5-min Rain = 0
KMNS 260115Z 16015G21KT 25/18 A2991 RMK A01 T02490178  RH  068%=      5-min Rain = 0
KMNS 260120Z 15014KT 25/18 A2991 RMK A01 T02470179  RH  069%=      5-min Rain = 0
KMNS 260125Z 15014KT 25/18 A2991 RMK A01 T02450179  RH  071%=      5-min Rain = 0
KMNS 260130Z 15016KT 24/18 A2991 RMK A01 T02440178  RH  071%=      5-min Rain = 0
KMNS 260135Z 16015KT 24/18 A2991 RMK A01 T02430178  RH  071%=      5-min Rain = 0
KMNS 260140Z 16014G21KT 24/18 A2992 RMK A01 T02410178  RH  071%=      5-min Rain = 0
KMNS 260145Z 16014KT 24/18 A2992 RMK A01 T02390178  RH  072%=      5-min Rain = 0
KMNS 260150Z 16012G17KT 24/18 A2992 RMK A01 T02370178  RH  073%=      5-min Rain = 0
KMNS 260155Z 15013G18KT 24/18 A2992 RMK A01 T02350179  RH  075%=      5-min Rain = 0
KMNS 260200Z 15014KT 23/18 A2992 RMK A01 T02340179  RH  075%=      5-min Rain = 0
KMNS 260205Z 15015KT 23/18 A2992 RMK A01 T02330179  RH  075%=      5-min Rain = 0
KMNS 260210Z 15014G20KT 23/18 A2993 RMK A01 T02330178  RH  075%=      5-min Rain = 0
KMNS 260215Z 15014KT 23/18 A2993 RMK A01 T02320177  RH  075%=      5-min Rain = 0
KMNS 260220Z 15015KT 23/18 A2993 RMK A01 T02310177  RH  075%=      5-min Rain = 0
KMNS 260225Z 15014KT 23/18 A2993 RMK A01 T02290177  RH  076%=      5-min Rain = 0
KMNS 260230Z 15013KT 23/18 A2993 RMK A01 T02270176  RH  077%=      5-min Rain = 0
KMNS 260235Z 15013KT 23/18 A2994 RMK A01 T02260176  RH  077%=      5-min Rain = 0
KMNS 260240Z 15012KT 22/18 A2994 RMK A01 T02240177  RH  079%=      5-min Rain = 0
KMNS 260245Z 15012KT 22/18 A2994 RMK A01 T02230177  RH  079%=      5-min Rain = 0
KMNS 260250Z 15012G17KT 22/18 A2994 RMK A01 T02230176  RH  079%=      5-min Rain = 0
KMNS 260255Z 15012G18KT 22/18 A2994 RMK A01 T02230176  RH  079%=      5-min Rain = 0
KMNS 260300Z 16011G16KT 22/18 A2994 RMK A01 T02220176  RH  079%=      5-min Rain = 0
KMNS 260305Z 16013KT 22/18 A2994 RMK A01 T02220175  RH  079%=      5-min Rain = 0
KMNS 260310Z 16014G20KT 22/18 A2994 RMK A01 T02210175  RH  079%=      5-min Rain = 0
KMNS 260315Z 16012G18KT 22/17 A2995 RMK A01 T02210174  RH  078%=      5-min Rain = 0
KMNS 260320Z 16012G18KT 22/17 A2995 RMK A01 T02200174  RH  079%=      5-min Rain = 0
KMNS 260325Z 16011G16KT 22/17 A2995 RMK A01 T02190174  RH  080%=      5-min Rain = 0
KMNS 260330Z 16012G17KT 22/17 A2995 RMK A01 T02180174  RH  080%=      5-min Rain = 0
KMNS 260335Z 16012G17KT 22/17 A2995 RMK A01 T02170174  RH  081%=      5-min Rain = 0
KMNS 260340Z 16012G17KT 22/17 A2995 RMK A01 T02170174  RH  081%=      5-min Rain = 0
KMNS 260345Z 16012KT 22/17 A2996 RMK A01 T02170174  RH  081%=      5-min Rain = 0
KMNS 260350Z 17013G18KT 22/18 A2996 RMK A01 T02160175  RH  082%=      5-min Rain = 0
KMNS 260355Z 17014KT 22/18 A2996 RMK A01 T02150175  RH  082%=      5-min Rain = 0
KMNS 260400Z 17013KT 22/18 A2996 RMK A01 T02150175  RH  082%=      5-min Rain = 0
KMNS 260405Z 17013KT 21/18 A2996 RMK A01 T02130175  RH  083%=      5-min Rain = 0
KMNS 260410Z 17012KT 21/18 A2997 RMK A01 T02120175  RH  083%=      5-min Rain = 0
KMNS 260415Z 17013KT 21/18 A2997 RMK A01 T02110175  RH  084%=      5-min Rain = 0
KMNS 260420Z 17013KT 21/18 A2997 RMK A01 T02100175  RH  084%=      5-min Rain = 0
KMNS 260425Z 17012G17KT 21/18 A2997 RMK A01 T02090175  RH  085%=      5-min Rain = 0
KMNS 260430Z 17013KT 21/18 A2997 RMK A01 T02090175  RH  085%=      5-min Rain = 0
KMNS 260435Z 18015KT 21/18 A2997 RMK A01 T02090175  RH  085%=      5-min Rain = 0
KMNS 260440Z 18015KT 21/17 A2997 RMK A01 T02100173  RH  084%=      5-min Rain = 0
KMNS 260445Z 18015KT 21/17 A2997 RMK A01 T02090172  RH  083%=      5-min Rain = 0
KMNS 260450Z 18016KT 21/17 A2997 RMK A01 T02090170  RH  083%=      5-min Rain = 0
KMNS 260455Z 18015G20KT 21/17 A2997 RMK A01 T02090170  RH  082%=      5-min Rain = 0

Page generated in 0.0113 seconds.